createdAt,value
2022-11-04T00:00:02.460Z,98522.03
2022-11-04T00:00:15.004Z,98514.00
2022-11-04T00:00:29.831Z,98514.09
2022-11-04T00:00:42.234Z,98515.78
2022-11-04T00:00:54.304Z,98518.97
2022-11-04T00:01:06.455Z,98512.75
2022-11-04T00:01:18.685Z,98510.31
2022-11-04T00:01:30.740Z,98507.53
2022-11-04T00:01:44.991Z,98512.47
2022-11-04T00:01:57.802Z,98510.91
2022-11-04T00:02:09.801Z,98515.28
2022-11-04T00:02:21.764Z,98514.25
2022-11-04T00:02:33.742Z,98510.16
2022-11-04T00:02:45.828Z,98513.50
2022-11-04T00:02:58.047Z,98509.88
2022-11-04T00:03:10.384Z,98510.91
2022-11-04T00:03:22.518Z,98497.13
2022-11-04T00:03:34.382Z,98509.94
2022-11-04T00:03:46.594Z,98506.03
2022-11-04T00:03:58.622Z,98516.25
2022-11-04T00:04:12.124Z,98518.13
2022-11-04T00:04:26.670Z,98515.44
2022-11-04T00:04:38.541Z,98516.94
2022-11-04T00:04:50.428Z,98507.53
2022-11-04T00:05:02.342Z,98510.22
2022-11-04T00:05:14.284Z,98519.81
2022-11-04T00:05:26.208Z,98513.66
2022-11-04T00:05:38.141Z,98514.59
2022-11-04T00:05:50.016Z,98517.63
2022-11-04T00:06:01.983Z,98517.56
2022-11-04T00:06:13.882Z,98521.66
2022-11-04T00:06:25.881Z,98512.91
2022-11-04T00:06:38.204Z,98510.97
2022-11-04T00:06:50.174Z,98518.72
2022-11-04T00:07:02.053Z,98517.13
2022-11-04T00:07:32.344Z,98521.31
2022-11-04T00:08:02.542Z,98511.66
2022-11-04T00:08:26.426Z,98514.69
2022-11-04T00:08:38.323Z,98517.22
2022-11-04T00:08:55.076Z,98515.72
2022-11-04T00:09:09.520Z,98519.97
2022-11-04T00:09:24.243Z,98513.59
2022-11-04T00:09:36.123Z,98516.25
2022-11-04T00:09:48.241Z,98512.75
2022-11-04T00:10:00.108Z,98518.13
2022-11-04T00:10:11.987Z,98523.16
2022-11-04T00:10:43.828Z,98517.78
2022-11-04T00:11:16.253Z,98513.06
2022-11-04T00:11:47.092Z,98507.59
2022-11-04T00:12:17.384Z,98510.63
2022-11-04T00:12:29.266Z,98508.84
2022-11-04T00:12:41.148Z,98514.19
2022-11-04T00:12:53.092Z,98512.22
2022-11-04T00:13:05.149Z,98519.59
2022-11-04T00:13:17.216Z,98520.25
2022-11-04T00:13:30.041Z,98527.47
2022-11-04T00:13:42.584Z,98527.31
2022-11-04T00:13:54.502Z,98515.47
2022-11-04T00:14:08.370Z,98518.75
2022-11-04T00:14:20.403Z,98515.88
2022-11-04T00:14:33.106Z,98513.19
2022-11-04T00:14:45.014Z,98525.81
2022-11-04T00:15:16.879Z,98518.75
2022-11-04T00:15:47.482Z,98525.63
2022-11-04T00:16:20.914Z,98523.78
2022-11-04T00:16:51.304Z,98534.03
2022-11-04T00:17:19.869Z,98522.69
2022-11-04T00:17:31.995Z,98527.78
2022-11-04T00:17:43.861Z,98530.75
2022-11-04T00:17:55.739Z,98526.28
2022-11-04T00:18:07.611Z,98520.41
2022-11-04T00:18:19.494Z,98525.63
2022-11-04T00:18:31.430Z,98533.19
2022-11-04T00:18:43.326Z,98525.47
2022-11-04T00:18:55.621Z,98524.72
2022-11-04T00:19:07.542Z,98525.94
2022-11-04T00:19:19.802Z,98529.28
2022-11-04T00:19:50.453Z,98526.81
2022-11-04T00:20:21.070Z,98532.38
2022-11-04T00:20:51.369Z,98532.88
2022-11-04T00:21:22.166Z,98532.53
2022-11-04T00:21:52.457Z,98528.16
2022-11-04T00:22:22.776Z,98530.69
2022-11-04T00:22:53.963Z,98529.19
2022-11-04T00:23:24.153Z,98524.72
2022-11-04T00:23:54.333Z,98532.19
2022-11-04T00:24:26.575Z,98530.69
2022-11-04T00:24:56.854Z,98528.81
2022-11-04T00:25:28.788Z,98535.53
2022-11-04T00:26:01.009Z,98543.72
2022-11-04T00:26:31.572Z,98531.38
2022-11-04T00:27:01.943Z,98540.69
2022-11-04T00:27:37.948Z,98535.50
2022-11-04T00:28:08.850Z,98546.19
2022-11-04T00:28:39.434Z,98545.63
2022-11-04T00:28:52.917Z,98530.84
2022-11-04T00:29:04.814Z,98539.25
2022-11-04T00:29:16.699Z,98530.69
2022-11-04T00:29:28.654Z,98531.94
2022-11-04T00:29:40.754Z,98530.56
2022-11-04T00:29:52.684Z,98527.69
2022-11-04T00:30:08.259Z,98526.84
2022-11-04T00:30:20.147Z,98529.88
2022-11-04T00:30:32.175Z,98526.53
2022-11-04T00:30:44.047Z,98515.91
2022-11-04T00:30:57.567Z,98524.31
2022-11-04T00:31:28.308Z,98523.50
2022-11-04T00:31:58.568Z,98525.16
2022-11-04T00:32:29.212Z,98532.28
2022-11-04T00:32:59.502Z,98536.72
2022-11-04T00:33:26.281Z,98520.41
2022-11-04T00:33:38.170Z,98523.97
2022-11-04T00:33:52.026Z,98532.28
2022-11-04T00:34:03.895Z,98529.53
2022-11-04T00:34:15.858Z,98540.69
2022-11-04T00:34:27.780Z,98540.19
2022-11-04T00:34:39.647Z,98540.28
2022-11-04T00:34:51.512Z,98552.44
2022-11-04T00:35:03.563Z,98543.13
2022-11-04T00:35:15.532Z,98543.31
2022-11-04T00:35:27.413Z,98540.50
2022-11-04T00:35:39.282Z,98543.31
2022-11-04T00:35:55.752Z,98543.13
2022-11-04T00:36:07.973Z,98551.53
2022-11-04T00:36:20.923Z,98534.19
2022-11-04T00:36:32.902Z,98554.28
2022-11-04T00:36:44.782Z,98550.78
2022-11-04T00:36:56.666Z,98558.75
2022-11-04T00:37:08.630Z,98553.38
2022-11-04T00:37:20.557Z,98558.59
2022-11-04T00:37:32.430Z,98549.31
2022-11-04T00:37:44.944Z,98556.56
2022-11-04T00:37:56.801Z,98552.34
2022-11-04T00:38:09.063Z,98550.94
2022-11-04T00:38:21.964Z,98556.72
2022-11-04T00:38:33.815Z,98554.88
2022-11-04T00:38:45.958Z,98555.91
2022-11-04T00:38:58.226Z,98554.88
2022-11-04T00:39:10.070Z,98559.19
2022-11-04T00:39:21.932Z,98558.59
2022-11-04T00:39:33.805Z,98561.28
2022-11-04T00:39:45.898Z,98557.25
2022-11-04T00:39:57.808Z,98557.25
2022-11-04T00:40:12.579Z,98555.41
2022-11-04T00:40:24.460Z,98551.19
2022-11-04T00:40:36.333Z,98563.06
2022-11-04T00:40:48.301Z,98559.78
2022-11-04T00:41:00.167Z,98550.19
2022-11-04T00:41:25.854Z,98553.53
2022-11-04T00:41:37.749Z,98570.19
2022-11-04T00:41:49.594Z,98545.84
2022-11-04T00:42:01.506Z,98557.25
2022-11-04T00:42:13.351Z,98554.09
2022-11-04T00:42:25.237Z,98558.09
2022-11-04T00:42:37.418Z,98562.97
2022-11-04T00:42:49.299Z,98562.31
2022-11-04T00:43:01.199Z,98567.44
2022-11-04T00:43:13.123Z,98559.63
2022-11-04T00:43:24.987Z,98555.59
2022-11-04T00:43:36.857Z,98558.19
2022-11-04T00:43:48.746Z,98567.84
2022-11-04T00:44:02.887Z,98556.25
2022-11-04T00:44:14.777Z,98552.63
2022-11-04T00:44:26.681Z,98557.09
2022-11-04T00:44:38.550Z,98555.59
2022-11-04T00:44:50.420Z,98554.66
2022-11-04T00:45:02.653Z,98572.63
2022-11-04T00:45:14.568Z,98561.34
2022-11-04T00:45:26.440Z,98557.09
2022-11-04T00:45:39.866Z,98561.94
2022-11-04T00:45:51.765Z,98557.00
2022-11-04T00:46:03.653Z,98552.63
2022-11-04T00:46:15.514Z,98553.53
2022-11-04T00:46:32.706Z,98550.38
2022-11-04T00:46:44.584Z,98553.72
2022-11-04T00:46:56.579Z,98555.09
2022-11-04T00:47:08.468Z,98558.47
2022-11-04T00:47:20.346Z,98552.56
2022-11-04T00:47:32.652Z,98555.00
2022-11-04T00:47:44.537Z,98554.25
2022-11-04T00:47:56.382Z,98554.25
2022-11-04T00:48:09.399Z,98555.19
2022-11-04T00:48:21.478Z,98561.16
2022-11-04T00:48:33.334Z,98555.84
2022-11-04T00:48:45.196Z,98557.59
2022-11-04T00:48:57.828Z,98557.59
2022-11-04T00:49:09.771Z,98556.41
2022-11-04T00:49:21.677Z,98552.91
2022-11-04T00:49:33.546Z,98550.84
2022-11-04T00:49:45.430Z,98559.09
2022-11-04T00:49:57.312Z,98564.50
2022-11-04T00:50:09.441Z,98560.97
2022-11-04T00:50:21.307Z,98558.28
2022-11-04T00:50:33.167Z,98555.19
2022-11-04T00:50:45.009Z,98568.88
2022-11-04T00:50:57.187Z,98560.72
2022-11-04T00:51:09.088Z,98559.69
2022-11-04T00:51:21.717Z,98560.78
2022-11-04T00:51:33.714Z,98557.59
2022-11-04T00:51:45.583Z,98557.59
2022-11-04T00:51:57.535Z,98564.34
2022-11-04T00:52:09.419Z,98561.72
2022-11-04T00:52:21.862Z,98569.38
2022-11-04T00:52:33.809Z,98561.50
2022-11-04T00:52:45.692Z,98565.69
2022-11-04T00:53:04.418Z,98559.44
2022-11-04T00:53:16.303Z,98568.88
2022-11-04T00:53:28.190Z,98562.56
2022-11-04T00:53:40.264Z,98560.38
2022-11-04T00:53:52.170Z,98562.72
2022-11-04T00:54:04.384Z,98566.16
2022-11-04T00:54:16.345Z,98564.16
2022-11-04T00:54:28.253Z,98560.78
2022-11-04T00:54:40.118Z,98561.97
2022-11-04T00:54:51.968Z,98563.91
2022-11-04T00:55:04.410Z,98565.19
2022-11-04T00:55:16.426Z,98570.41
2022-11-04T00:55:28.798Z,98565.00
2022-11-04T00:55:40.768Z,98564.84
2022-11-04T00:55:52.650Z,98560.16
2022-11-04T00:56:04.820Z,98568.72
2022-11-04T00:56:16.819Z,98561.25
2022-11-04T00:56:28.790Z,98568.91
2022-11-04T00:56:41.924Z,98562.75
2022-11-04T00:56:54.019Z,98564.53
2022-11-04T00:57:08.682Z,98563.84
2022-11-04T00:57:20.559Z,98573.00
2022-11-04T00:57:32.425Z,98583.16
2022-11-04T00:57:44.293Z,98564.19
2022-11-04T00:57:58.345Z,98571.09
2022-11-04T00:58:10.218Z,98563.34
2022-11-04T00:58:22.078Z,98569.53
2022-11-04T00:58:33.973Z,98569.03
2022-11-04T00:58:46.004Z,98569.72
2022-11-04T00:59:01.121Z,98564.31
2022-11-04T00:59:14.563Z,98566.16
2022-11-04T00:59:26.693Z,98562.31
2022-11-04T00:59:39.843Z,98559.13
2022-11-04T00:59:51.730Z,98566.38
2022-11-04T01:00:04.331Z,98557.53
2022-11-04T01:00:16.407Z,98565.34
2022-11-04T01:00:28.408Z,98571.50
2022-11-04T01:00:40.513Z,98567.88
2022-11-04T01:00:52.405Z,98556.78
2022-11-04T01:01:12.081Z,98558.47
2022-11-04T01:01:24.108Z,98560.69
2022-11-04T01:01:36.259Z,98556.78
2022-11-04T01:01:48.362Z,98558.06
2022-11-04T01:02:00.458Z,98562.34
2022-11-04T01:02:13.791Z,98560.97
2022-11-04T01:02:26.298Z,98563.44
2022-11-04T01:02:38.382Z,98578.31
2022-11-04T01:02:50.290Z,98556.13
2022-11-04T01:03:02.283Z,98575.44
2022-11-04T01:03:14.131Z,98577.06
2022-11-04T01:03:26.005Z,98556.88
2022-11-04T01:03:38.741Z,98565.53
2022-11-04T01:03:52.526Z,98560.50
2022-11-04T01:04:04.614Z,98564.59
2022-11-04T01:04:16.513Z,98568.50
2022-11-04T01:04:28.574Z,98562.69
2022-11-04T01:04:40.475Z,98570.41
2022-11-04T01:04:52.338Z,98562.34
2022-11-04T01:05:04.588Z,98562.69
2022-11-04T01:05:16.559Z,98586.13
2022-11-04T01:05:28.579Z,98561.59
2022-11-04T01:05:40.678Z,98556.13
2022-11-04T01:05:52.534Z,98557.13
2022-11-04T01:06:05.598Z,98560.50
2022-11-04T01:06:18.551Z,98557.53
2022-11-04T01:06:30.461Z,98560.22
2022-11-04T01:06:42.338Z,98557.19
2022-11-04T01:06:54.220Z,98569.81
2022-11-04T01:07:06.103Z,98570.22
2022-11-04T01:07:18.019Z,98585.78
2022-11-04T01:07:30.807Z,98576.47
2022-11-04T01:07:43.906Z,98562.69
2022-11-04T01:07:56.619Z,98575.84
2022-11-04T01:08:08.482Z,98572.31
2022-11-04T01:08:20.327Z,98576.75
2022-11-04T01:08:32.644Z,98644.25
2022-11-04T01:08:45.208Z,98591.75
2022-11-04T01:09:01.902Z,98560.50
2022-11-04T01:09:14.112Z,98556.97
2022-11-04T01:09:26.040Z,98563.28
2022-11-04T01:09:38.029Z,98575.44
2022-11-04T01:09:49.899Z,98570.50
2022-11-04T01:10:01.757Z,98570.81
2022-11-04T01:10:13.737Z,98575.09
2022-11-04T01:10:25.599Z,98574.78
2022-11-04T01:10:44.490Z,98568.03
2022-11-04T01:10:56.367Z,98568.88
2022-11-04T01:11:09.617Z,98562.34
2022-11-04T01:11:21.612Z,98563.84
2022-11-04T01:11:34.041Z,98573.50
2022-11-04T01:11:45.910Z,98561.50
2022-11-04T01:11:57.801Z,98562.59
2022-11-04T01:12:09.680Z,98563.09
2022-11-04T01:12:21.608Z,98567.41
2022-11-04T01:12:33.464Z,98568.38
2022-11-04T01:12:45.364Z,98577.13
2022-11-04T01:12:57.214Z,98569.31
2022-11-04T01:13:09.426Z,98552.13
2022-11-04T01:13:21.512Z,98572.09
2022-11-04T01:13:33.886Z,98597.47
2022-11-04T01:13:45.862Z,98570.56
2022-11-04T01:13:58.597Z,98565.44
2022-11-04T01:14:10.488Z,98573.09
2022-11-04T01:14:23.186Z,98591.06
2022-11-04T01:14:35.278Z,98583.03
2022-11-04T01:14:49.682Z,98573.50
2022-11-04T01:15:01.636Z,98578.03
2022-11-04T01:15:13.503Z,98560.50
2022-11-04T01:15:25.418Z,98576.94
2022-11-04T01:15:38.137Z,98574.44
2022-11-04T01:15:50.032Z,98561.59
2022-11-04T01:16:05.056Z,98559.25
2022-11-04T01:16:18.058Z,98564.19
2022-11-04T01:16:30.955Z,98573.50
2022-11-04T01:16:43.406Z,98556.22
2022-11-04T01:16:55.283Z,98566.63
2022-11-04T01:17:07.335Z,98560.34
2022-11-04T01:17:19.238Z,98569.06
2022-11-04T01:17:31.128Z,98564.59
2022-11-04T01:17:43.063Z,98560.34
2022-11-04T01:17:54.931Z,98559.66
2022-11-04T01:18:07.351Z,98571.09
2022-11-04T01:18:19.398Z,98559.16
2022-11-04T01:18:31.547Z,98557.78
2022-11-04T01:18:43.597Z,98563.34
2022-11-04T01:18:55.532Z,98563.34
2022-11-04T01:19:07.581Z,98560.38
2022-11-04T01:19:19.553Z,98557.63
2022-11-04T01:19:31.470Z,98564.56
2022-11-04T01:19:43.737Z,98559.38
2022-11-04T01:19:55.619Z,98571.75
2022-11-04T01:20:07.941Z,98566.44
2022-11-04T01:20:20.098Z,98558.63
2022-11-04T01:20:33.513Z,98562.09
2022-11-04T01:20:45.363Z,98568.03
2022-11-04T01:21:01.516Z,98560.38
2022-11-04T01:21:15.384Z,98569.13
2022-11-04T01:21:27.319Z,98562.75
2022-11-04T01:21:39.234Z,98552.28
2022-11-04T01:21:52.687Z,98573.09
2022-11-04T01:22:04.535Z,98560.84
2022-11-04T01:22:16.460Z,98565.38
2022-11-04T01:22:28.379Z,98561.03
2022-11-04T01:22:40.495Z,98566.53
2022-11-04T01:22:52.364Z,98565.00
2022-11-04T01:23:04.255Z,98569.13
2022-11-04T01:23:16.493Z,98554.44
2022-11-04T01:23:28.604Z,98547.53
2022-11-04T01:23:42.595Z,98557.72
2022-11-04T01:23:54.482Z,98575.09
2022-11-04T01:24:06.642Z,98562.16
2022-11-04T01:24:19.094Z,98554.44
2022-11-04T01:24:30.956Z,98570.88
2022-11-04T01:24:42.855Z,98557.78
2022-11-04T01:24:54.739Z,98561.56
2022-11-04T01:25:07.425Z,98570.13
2022-11-04T01:25:19.493Z,98563.94
2022-11-04T01:25:31.347Z,98568.34
2022-11-04T01:25:43.279Z,98560.16
2022-11-04T01:25:55.688Z,98568.03
2022-11-04T01:26:12.812Z,98563.66
2022-11-04T01:26:25.954Z,98561.34
2022-11-04T01:26:37.827Z,98557.94
2022-11-04T01:26:49.798Z,98557.63
2022-11-04T01:27:01.688Z,98565.22
2022-11-04T01:27:13.597Z,98566.63
2022-11-04T01:27:25.472Z,98560.47
2022-11-04T01:27:37.387Z,98562.84
2022-11-04T01:27:49.294Z,98568.72
2022-11-04T01:28:01.197Z,98564.38
2022-11-04T01:28:13.090Z,98576.47
2022-11-04T01:28:24.969Z,98576.69
2022-11-04T01:28:36.898Z,98569.91
2022-11-04T01:28:49.229Z,98576.75
2022-11-04T01:29:01.118Z,98566.03
2022-11-04T01:29:12.996Z,98576.47
2022-11-04T01:29:25.096Z,98563.63
2022-11-04T01:29:37.008Z,98564.47
2022-11-04T01:29:48.984Z,98564.84
2022-11-04T01:30:00.894Z,98556.13
2022-11-04T01:30:12.985Z,98557.03
2022-11-04T01:30:24.858Z,98561.63
2022-11-04T01:30:39.403Z,98576.28
2022-11-04T01:30:51.293Z,98567.59
2022-11-04T01:31:07.249Z,98566.34
2022-11-04T01:31:24.403Z,98568.03
2022-11-04T01:31:36.338Z,98573.56
2022-11-04T01:31:48.237Z,98571.91
2022-11-04T01:32:00.230Z,98563.00
2022-11-04T01:32:12.129Z,98570.88
2022-11-04T01:32:23.999Z,98570.13
2022-11-04T01:32:35.904Z,98567.53
2022-11-04T01:32:47.788Z,98566.69
2022-11-04T01:32:59.672Z,98565.19
2022-11-04T01:33:11.634Z,98565.94
2022-11-04T01:33:24.839Z,98570.38
2022-11-04T01:33:37.616Z,98575.75
2022-11-04T01:33:51.273Z,98572.81
2022-11-04T01:34:03.252Z,98566.34
2022-11-04T01:34:15.129Z,98573.56
2022-11-04T01:34:27.042Z,98570.38
2022-11-04T01:34:42.452Z,98572.91
2022-11-04T01:34:55.683Z,98575.41
2022-11-04T01:35:07.932Z,98571.91
2022-11-04T01:35:19.791Z,98568.34
2022-11-04T01:35:31.907Z,98559.78
2022-11-04T01:35:44.021Z,98567.28
2022-11-04T01:35:59.763Z,98570.97
2022-11-04T01:36:11.816Z,98570.38
2022-11-04T01:36:23.873Z,98566.84
2022-11-04T01:36:35.920Z,98574.34
2022-11-04T01:36:47.788Z,98565.75
2022-11-04T01:36:59.665Z,98571.91
2022-11-04T01:37:11.590Z,98566.34
2022-11-04T01:37:23.482Z,98565.59
2022-11-04T01:37:35.538Z,98566.34
2022-11-04T01:37:47.475Z,98568.28
2022-11-04T01:37:59.397Z,98565.53
2022-11-04T01:38:11.670Z,98564.69
2022-11-04T01:38:23.681Z,98557.78
2022-11-04T01:38:35.919Z,98566.53
2022-11-04T01:38:48.004Z,98570.97
2022-11-04T01:38:59.918Z,98556.88
2022-11-04T01:39:12.925Z,98568.03
2022-11-04T01:39:24.797Z,98564.38
2022-11-04T01:39:36.676Z,98553.25
2022-11-04T01:39:48.574Z,98561.34
2022-11-04T01:40:00.475Z,98567.19
2022-11-04T01:40:12.511Z,98557.78
2022-11-04T01:40:24.853Z,98563.16
2022-11-04T01:40:38.518Z,98560.53
2022-11-04T01:40:50.480Z,98550.81
2022-11-04T01:41:03.245Z,98559.63
2022-11-04T01:41:24.923Z,98552.91
2022-11-04T01:41:36.858Z,98542.66
2022-11-04T01:41:48.774Z,98553.25
2022-11-04T01:42:00.710Z,98545.44
2022-11-04T01:42:14.992Z,98561.81
2022-11-04T01:42:26.967Z,98568.69
2022-11-04T01:42:38.854Z,98556.78
2022-11-04T01:42:50.737Z,98559.63
2022-11-04T01:43:02.634Z,98555.94
2022-11-04T01:43:21.230Z,98553.81
2022-11-04T01:44:22.140Z,98560.31
2022-11-04T01:44:47.678Z,98567.78
2022-11-04T01:45:00.956Z,98552.91
2022-11-04T01:45:14.853Z,98556.28
2022-11-04T01:45:27.268Z,98572.06
2022-11-04T01:45:39.193Z,98559.78
2022-11-04T01:46:01.220Z,98564.25
2022-11-04T01:46:19.813Z,98561.13
2022-11-04T01:46:38.751Z,98560.38
2022-11-04T01:46:53.902Z,98556.78
2022-11-04T01:47:06.003Z,98557.78
2022-11-04T01:47:25.647Z,98561.13
2022-11-04T01:47:43.574Z,98560.13
2022-11-04T01:48:04.048Z,98589.78
2022-11-04T01:48:22.350Z,98561.97
2022-11-04T01:48:35.112Z,98584.56
2022-11-04T01:48:47.240Z,98574.84
2022-11-04T01:49:04.233Z,98573.91
2022-11-04T01:49:26.067Z,98572.06
2022-11-04T01:49:43.320Z,98573.00
2022-11-04T01:50:04.938Z,98574.25
2022-11-04T01:50:24.657Z,98575.59
2022-11-04T01:50:37.269Z,98569.63
2022-11-04T01:50:51.933Z,98573.41
2022-11-04T01:51:05.815Z,98582.03
2022-11-04T01:51:17.801Z,98578.13
2022-11-04T01:51:35.669Z,98568.97
2022-11-04T01:51:50.460Z,98570.19
2022-11-04T01:52:11.128Z,98564.69
2022-11-04T01:52:40.502Z,98571.91
2022-11-04T01:53:00.480Z,98575.25
2022-11-04T01:53:18.789Z,98576.28
2022-11-04T01:53:34.394Z,98576.09
2022-11-04T01:53:48.446Z,98552.72
2022-11-04T01:54:01.549Z,98574.91
2022-11-04T01:54:14.123Z,98583.66
2022-11-04T01:54:26.972Z,98574.25
2022-11-04T01:54:42.803Z,98577.53
2022-11-04T01:54:57.430Z,98571.63
2022-11-04T01:55:14.612Z,98565.84
2022-11-04T01:55:31.595Z,98570.31
2022-11-04T01:55:50.670Z,98571.75
2022-11-04T01:56:12.137Z,98572.06
2022-11-04T01:56:26.585Z,98576.09
2022-11-04T01:56:41.963Z,98568.13
2022-11-04T01:56:55.023Z,98563.81
2022-11-04T01:57:15.072Z,98565.94
2022-11-04T01:57:36.470Z,98567.94
2022-11-04T01:57:50.387Z,98569.56
2022-11-04T01:58:08.047Z,98578.09
2022-11-04T01:58:23.154Z,98574.75
2022-11-04T01:58:35.290Z,98572.72
2022-11-04T01:58:52.049Z,98581.28
2022-11-04T01:59:12.589Z,98574.41
2022-11-04T01:59:28.308Z,98575.50
2022-11-04T01:59:40.928Z,98572.56
2022-11-04T01:59:53.006Z,98570.03
2022-11-04T02:00:07.664Z,98578.09
2022-11-04T02:00:19.739Z,98581.94
2022-11-04T02:00:32.914Z,98590.53
2022-11-04T02:00:45.083Z,98583.81
2022-11-04T02:00:57.000Z,98571.06
2022-11-04T02:01:11.232Z,98571.41
2022-11-04T02:01:23.819Z,98564.34
2022-11-04T02:01:35.948Z,98574.69
2022-11-04T02:01:48.108Z,98576.25
2022-11-04T02:02:00.231Z,98575.25
2022-11-04T02:02:12.368Z,98575.00
2022-11-04T02:02:24.536Z,98579.44
2022-11-04T02:02:46.321Z,98575.75
2022-11-04T02:03:09.097Z,98576.00
2022-11-04T02:03:28.493Z,98574.50
2022-11-04T02:03:54.346Z,98581.63
2022-11-04T02:04:24.832Z,98572.16
2022-11-04T02:04:38.304Z,98569.28
2022-11-04T02:04:50.262Z,98560.31
2022-11-04T02:05:02.147Z,98576.75
2022-11-04T02:05:14.161Z,98572.66
2022-11-04T02:05:28.316Z,98576.09
2022-11-04T02:05:41.819Z,98578.53
2022-11-04T02:05:54.675Z,98568.88
2022-11-04T02:06:07.731Z,98564.91
2022-11-04T02:06:22.016Z,98563.19
2022-11-04T02:06:33.943Z,98565.16
2022-11-04T02:06:47.894Z,98567.84
2022-11-04T02:07:02.255Z,98557.44
2022-11-04T02:07:14.431Z,98571.22
2022-11-04T02:07:27.390Z,98555.78
2022-11-04T02:07:39.299Z,98572.22
2022-11-04T02:07:55.021Z,98551.91
2022-11-04T02:08:09.249Z,98553.19
2022-11-04T02:08:21.858Z,98556.13
2022-11-04T02:08:34.771Z,98550.91
2022-11-04T02:08:47.884Z,98554.44
2022-11-04T02:08:59.846Z,98549.56
2022-11-04T02:09:12.613Z,98550.25
2022-11-04T02:09:26.763Z,98554.50
2022-11-04T02:09:40.267Z,98545.19
2022-11-04T02:09:53.039Z,98548.31
2022-11-04T02:10:05.571Z,98563.91
2022-11-04T02:10:20.140Z,98549.88
2022-11-04T02:10:33.160Z,98566.66
2022-11-04T02:10:56.115Z,98551.38
2022-11-04T02:11:08.055Z,98564.13
2022-11-04T02:11:38.659Z,98567.84
2022-11-04T02:12:09.179Z,98554.25
2022-11-04T02:12:39.580Z,98560.97
2022-11-04T02:12:51.948Z,98558.13
2022-11-04T02:13:05.710Z,98550.38
2022-11-04T02:13:18.443Z,98553.75
2022-11-04T02:13:32.511Z,98557.28
2022-11-04T02:13:44.396Z,98555.94
2022-11-04T02:13:56.334Z,98561.31
2022-11-04T02:14:08.241Z,98555.94
2022-11-04T02:14:20.164Z,98561.13
2022-11-04T02:14:34.665Z,98559.28
2022-11-04T02:14:48.992Z,98570.72
2022-11-04T02:15:00.923Z,98564.34
2022-11-04T02:15:12.821Z,98568.09
2022-11-04T02:15:53.292Z,98559.88
2022-11-04T02:16:21.099Z,98568.03
2022-11-04T02:16:44.713Z,98575.09
2022-11-04T02:17:09.857Z,98560.22
2022-11-04T02:17:45.725Z,98550.03
2022-11-04T02:18:16.015Z,98552.56
2022-11-04T02:18:46.459Z,98573.56
2022-11-04T02:19:14.628Z,98559.94
2022-11-04T02:19:44.582Z,98564.25
2022-11-04T02:20:08.447Z,98555.94
2022-11-04T02:20:25.972Z,98563.81
2022-11-04T02:21:08.333Z,98543.00
2022-11-04T02:21:55.503Z,98558.94
2022-11-04T02:22:22.114Z,98561.44
2022-11-04T02:23:00.037Z,98550.88
2022-11-04T02:23:42.446Z,98556.59
2022-11-04T02:24:09.247Z,98555.75
2022-11-04T02:24:47.489Z,98559.38
2022-11-04T02:25:11.382Z,98562.13
2022-11-04T02:25:26.042Z,98560.13
2022-11-04T02:25:40.739Z,98560.78
2022-11-04T02:26:30.106Z,98554.81
2022-11-04T02:26:52.766Z,98551.06
2022-11-04T02:27:43.446Z,98545.94
2022-11-04T02:28:32.522Z,98546.50
2022-11-04T02:28:50.192Z,98551.03
2022-11-04T02:29:20.463Z,98545.00
2022-11-04T02:30:03.977Z,98558.75
2022-11-04T02:30:20.870Z,98570.88
2022-11-04T02:30:46.512Z,98556.59
2022-11-04T02:31:23.809Z,98557.34
2022-11-04T02:32:08.910Z,98566.84
2022-11-04T02:32:44.118Z,98551.06
2022-11-04T02:33:14.319Z,98557.97
2022-11-04T02:33:38.540Z,98564.66
2022-11-04T02:34:19.618Z,98553.66
2022-11-04T02:34:43.254Z,98564.00
2022-11-04T02:35:19.743Z,98552.91
2022-11-04T02:35:49.878Z,98551.25
2022-11-04T02:36:17.497Z,98562.47
2022-11-04T02:36:42.352Z,98563.50
2022-11-04T02:37:22.353Z,98556.84
2022-11-04T02:38:03.284Z,98566.34
2022-11-04T02:38:37.725Z,98559.63
2022-11-04T02:38:59.185Z,98554.75
2022-11-04T02:39:35.138Z,98558.44
2022-11-04T02:40:11.178Z,98552.56
2022-11-04T02:40:40.230Z,98555.25
2022-11-04T02:41:08.946Z,98559.19
2022-11-04T02:41:28.940Z,98558.63
2022-11-04T02:41:53.255Z,98558.84
2022-11-04T02:42:17.487Z,98559.94
2022-11-04T02:42:43.878Z,98563.81
2022-11-04T02:43:04.010Z,98565.91
2022-11-04T02:43:28.686Z,98567.00
2022-11-04T02:44:13.597Z,98567.25
2022-11-04T02:44:45.619Z,98563.97
2022-11-04T02:45:09.199Z,98571.44
2022-11-04T02:45:23.039Z,98561.66
2022-11-04T02:45:50.389Z,98568.41
2022-11-04T02:46:16.980Z,98574.38
2022-11-04T02:46:40.143Z,98574.13
2022-11-04T02:47:00.032Z,98567.75
2022-11-04T02:47:17.328Z,98572.38
2022-11-04T02:47:31.427Z,98569.34
2022-11-04T02:47:54.186Z,98574.03
2022-11-04T02:48:12.609Z,98572.72
2022-11-04T02:48:35.677Z,98567.50
2022-11-04T02:48:57.308Z,98578.75
2022-11-04T02:49:15.818Z,98588.13
2022-11-04T02:49:57.909Z,98577.72
2022-11-04T02:50:17.156Z,98586.63
2022-11-04T02:50:45.210Z,98578.06
2022-11-04T02:51:07.992Z,98588.97
2022-11-04T02:51:36.516Z,98575.88
2022-11-04T02:52:08.271Z,98576.50
2022-11-04T02:52:27.776Z,98581.03
2022-11-04T02:52:53.250Z,98582.94
2022-11-04T02:53:31.436Z,98584.97
2022-11-04T02:54:06.035Z,98572.53
2022-11-04T02:54:28.463Z,98563.13
2022-11-04T02:54:58.471Z,98581.41
2022-11-04T02:55:19.856Z,98564.16
2022-11-04T02:55:49.424Z,98563.22
2022-11-04T02:56:04.076Z,98558.75
2022-11-04T02:56:19.229Z,98558.25
2022-11-04T02:56:36.193Z,98556.63
2022-11-04T02:56:51.405Z,98549.78
2022-11-04T02:57:07.942Z,98560.75
2022-11-04T02:57:25.043Z,98559.09
2022-11-04T02:57:42.057Z,98554.16
2022-11-04T02:57:56.528Z,98547.50
2022-11-04T02:58:17.564Z,98559.56
2022-11-04T02:58:34.509Z,98559.41
2022-11-04T02:58:54.822Z,98557.06
2022-11-04T02:59:14.277Z,98555.72
2022-11-04T02:59:35.205Z,98550.53
2022-11-04T02:59:55.799Z,98571.50
2022-11-04T03:00:10.813Z,98566.28
2022-11-04T03:00:22.732Z,98573.88
2022-11-04T03:00:39.195Z,98560.75
2022-11-04T03:00:54.804Z,98571.16
2022-11-04T03:01:11.672Z,98568.34
2022-11-04T03:01:29.363Z,98568.34
2022-11-04T03:01:45.260Z,98569.84
2022-11-04T03:02:00.322Z,98570.53
2022-11-04T03:02:19.317Z,98583.13
2022-11-04T03:02:45.427Z,98587.78
2022-11-04T03:03:01.676Z,98585.44
2022-11-04T03:03:19.381Z,98576.88
2022-11-04T03:03:37.378Z,98581.31
2022-11-04T03:03:56.317Z,98580.56
2022-11-04T03:04:18.082Z,98574.50
2022-11-04T03:04:34.213Z,98569.63
2022-11-04T03:04:50.459Z,98570.63
2022-11-04T03:05:07.210Z,98582.84
2022-11-04T03:05:26.129Z,98567.09
2022-11-04T03:05:42.258Z,98572.13
2022-11-04T03:05:57.923Z,98587.22
2022-11-04T03:06:13.901Z,98575.06
2022-11-04T03:06:27.735Z,98568.94
2022-11-04T03:06:41.382Z,98575.66
2022-11-04T03:06:56.267Z,98568.63
2022-11-04T03:07:34.631Z,98564.81
2022-11-04T03:07:49.391Z,98563.19
2022-11-04T03:08:06.916Z,98571.94
2022-11-04T03:08:26.864Z,98566.66
2022-11-04T03:08:42.788Z,98572.31
2022-11-04T03:08:55.756Z,98567.09
2022-11-04T03:09:10.032Z,98578.09
2022-11-04T03:09:23.585Z,98576.50
2022-11-04T03:09:39.284Z,98575.81
2022-11-04T03:09:58.288Z,98580.31
2022-11-04T03:10:23.279Z,98584.56
2022-11-04T03:10:45.364Z,98586.06
2022-11-04T03:11:11.524Z,98602.00
2022-11-04T03:11:25.501Z,98602.91
2022-11-04T03:11:40.527Z,98586.31